Time,TemperatureF,DewpointF,PressureIn,WindDirection,WindDirectionDegrees,WindSpeedMPH,WindSpeedGustMPH,Humidity,HourlyPrecipIn,Conditions,Clouds,dailyrainin,SoftwareType,DateUTC
2013-03-29 00:00:00,35.0,27.0,-100.00,North,-999,-999.0,-999.0,72,-99.99,,,-99.99,,2013-03-29 07:00:00,
2013-03-29 00:52:00,35.0,27.0,-100.00,North,-999,-999.0,-999.0,72,-99.99,,,-99.99,,2013-03-29 07:52:00,
2013-03-29 01:00:00,36.0,25.0,-100.00,WNW,284,3.0,5.0,65,-99.99,,,0.00,,2013-03-29 08:00:00,
2013-03-29 02:00:00,35.0,23.0,-100.00,West,274,4.0,5.0,61,-99.99,,,0.00,,2013-03-29 09:00:00,
2013-03-29 03:00:00,35.0,24.0,-100.00,WNW,285,3.0,4.0,64,-99.99,,,0.00,,2013-03-29 10:00:00,
2013-03-29 04:00:00,33.0,21.0,-100.00,WNW,301,2.0,3.0,63,-99.99,,,0.00,,2013-03-29 11:00:00,
2013-03-29 05:00:00,33.0,21.0,-100.00,WNW,294,2.0,4.0,60,-99.99,,,-99.99,,2013-03-29 12:00:00,
2013-03-29 06:00:00,37.0,24.0,-100.00,West,280,3.0,6.0,60,-99.99,,,-99.99,,2013-03-29 13:00:00,
2013-03-29 06:53:00,37.0,24.0,-100.00,West,280,3.0,6.0,60,-99.99,,,-99.99,,2013-03-29 13:53:00,
2013-03-29 07:00:00,36.0,26.0,-100.00,South,179,3.0,5.0,65,-99.99,,,-99.99,,2013-03-29 14:00:00,
2013-03-29 08:00:00,37.0,27.0,-100.00,South,180,2.0,4.0,67,-99.99,,,0.00,,2013-03-29 15:00:00,
2013-03-29 09:00:00,38.0,29.0,-100.00,NE,50,2.0,4.0,68,-99.99,,,0.00,,2013-03-29 16:00:00,
2013-03-29 10:00:00,40.0,29.0,-100.00,North,0,3.0,7.0,64,-99.99,,,0.00,,2013-03-29 17:00:00,
2013-03-29 10:43:00,40.0,29.0,-100.00,North,0,3.0,7.0,64,-99.99,,,0.00,,2013-03-29 17:43:00,
2013-03-29 10:52:00,40.0,29.0,-100.00,North,0,3.0,7.0,64,-99.99,,,0.00,,2013-03-29 17:52:00,
2013-03-29 11:00:00,43.0,30.0,-100.00,WNW,282,4.0,7.0,60,-99.99,,,-99.99,,2013-03-29 18:00:00,
2013-03-29 11:43:00,43.0,30.0,-100.00,WNW,282,4.0,7.0,60,-99.99,,,-99.99,,2013-03-29 18:43:00,
2013-03-29 11:52:00,43.0,30.0,-100.00,WNW,282,4.0,7.0,60,-99.99,,,-99.99,,2013-03-29 18:52:00,
2013-03-29 12:00:00,45.0,29.0,-100.00,South,173,3.0,6.0,52,-99.99,,,0.00,,2013-03-29 19:00:00,
2013-03-29 12:43:00,45.0,29.0,-100.00,South,173,3.0,6.0,52,-99.99,,,0.00,,2013-03-29 19:43:00,
2013-03-29 12:52:00,45.0,29.0,-100.00,South,173,3.0,6.0,52,-99.99,,,0.00,,2013-03-29 19:52:00,
2013-03-29 13:00:00,47.0,26.0,-100.00,SW,218,3.0,8.0,43,-99.99,,,0.00,,2013-03-29 20:00:00,
2013-03-29 13:42:00,47.0,26.0,-100.00,SW,218,3.0,8.0,43,-99.99,,,0.00,,2013-03-29 20:42:00,
2013-03-29 13:52:00,47.0,26.0,-100.00,SW,218,3.0,8.0,43,-99.99,,,0.00,,2013-03-29 20:52:00,
2013-03-29 14:00:00,45.0,23.0,-100.00,West,277,3.0,6.0,42,-99.99,,,-99.99,,2013-03-29 21:00:00,
2013-03-29 14:43:00,45.0,23.0,-100.00,West,277,3.0,6.0,42,-99.99,,,-99.99,,2013-03-29 21:43:00,
2013-03-29 14:53:00,45.0,23.0,-100.00,West,277,3.0,6.0,42,-99.99,,,-99.99,,2013-03-29 21:53:00,
2013-03-29 15:00:00,44.0,28.0,-100.00,SW,218,2.0,4.0,54,-99.99,,,0.00,,2013-03-29 22:00:00,
2013-03-29 15:43:00,44.0,28.0,-100.00,SW,218,2.0,4.0,54,-99.99,,,0.00,,2013-03-29 22:43:00,
2013-03-29 15:53:00,44.0,28.0,-100.00,SW,218,2.0,4.0,54,-99.99,,,0.00,,2013-03-29 22:53:00,
2013-03-29 16:00:00,44.0,27.0,-100.00,SSW,210,1.0,4.0,50,-99.99,,,0.00,,2013-03-29 23:00:00,
2013-03-29 16:52:00,44.0,27.0,-100.00,SSW,210,1.0,4.0,50,-99.99,,,0.00,,2013-03-29 23:52:00,
2013-03-29 17:00:00,45.0,26.0,-100.00,West,273,2.0,4.0,47,-99.99,,,0.00,,2013-03-30 00:00:00,
2013-03-29 18:00:00,44.0,25.0,-100.00,North,0,1.0,4.0,47,-99.99,,,0.00,,2013-03-30 01:00:00,
2013-03-29 19:00:00,42.0,24.0,-100.00,West,281,2.0,4.0,48,-99.99,,,0.00,,2013-03-30 02:00:00,
2013-03-29 20:00:00,38.0,24.0,-100.00,WNW,296,2.0,3.0,58,-99.99,,,0.00,,2013-03-30 03:00:00,
2013-03-29 21:00:00,37.0,27.0,-100.00,WNW,284,2.0,2.0,69,-99.99,,,0.00,,2013-03-30 04:00:00,
2013-03-29 22:00:00,35.0,26.0,-100.00,WNW,300,2.0,2.0,68,-99.99,,,0.00,,2013-03-30 05:00:00,
2013-03-29 23:00:00,35.0,25.0,-100.00,West,270,1.0,2.0,66,-99.99,,,-99.99,,2013-03-30 06:00:00,